Wapella, Canada
Current Conditions -  °F | °C
As of 2:00 PM on Thursday 29 Jan 2015 (Local Time) from CYQV Reporting Station
Overcast Overcast  
Wind Chill:   Ceiling: 1500
Heat Index:   Visibility: 8mi
Dew Point:   Wind: 3mph
Humidity: 72%   Direction: 160°SSE
Pressure: 30.49"   Gusts: NA
Location:  50.25°N, 101.97°W
Report Text: CYQV 292000Z AUTO 16003KT 8SM OVC015 M14/M18 A3049 RMK SLP370
Loading
Personal Weather Stations






























Interactive Weather Map New forecast layout! Learn more

10-Day Weather Forecast

Advertisements
Track Severe Weather on mobile